createdAt,value
2023-12-09T00:00:10.166Z,89.05
2023-12-09T00:01:10.911Z,88.99
2023-12-09T00:02:10.253Z,88.94
2023-12-09T00:03:10.445Z,88.89
2023-12-09T00:04:10.430Z,88.88
2023-12-09T00:05:10.490Z,88.90
2023-12-09T00:06:10.597Z,88.87
2023-12-09T00:07:10.725Z,88.89
2023-12-09T00:08:10.704Z,88.86
2023-12-09T00:09:10.894Z,88.94
2023-12-09T00:10:10.891Z,88.96
2023-12-09T00:11:11.004Z,88.85
2023-12-09T00:12:11.091Z,88.80
2023-12-09T00:13:11.131Z,88.82
2023-12-09T00:14:11.213Z,88.88
2023-12-09T00:15:11.305Z,88.90
2023-12-09T00:16:11.376Z,88.82
2023-12-09T00:17:11.437Z,88.77
2023-12-09T00:18:11.653Z,88.79
2023-12-09T00:19:11.690Z,88.84
2023-12-09T00:20:11.687Z,88.84
2023-12-09T00:21:11.807Z,88.80
2023-12-09T00:22:11.850Z,88.75
2023-12-09T00:23:11.950Z,88.71
2023-12-09T00:24:12.078Z,88.73
2023-12-09T00:25:12.092Z,88.76
2023-12-09T00:26:12.164Z,88.78
2023-12-09T00:27:12.286Z,88.81
2023-12-09T00:28:12.371Z,88.87
2023-12-09T00:29:12.421Z,88.87
2023-12-09T00:30:12.513Z,88.81
2023-12-09T00:31:13.084Z,88.78
2023-12-09T00:32:12.751Z,88.79
2023-12-09T00:33:12.930Z,88.83
2023-12-09T00:34:12.847Z,88.84
2023-12-09T00:35:13.590Z,88.79
2023-12-09T00:36:12.999Z,88.76
2023-12-09T00:37:13.030Z,88.73
2023-12-09T00:38:13.104Z,88.72
2023-12-09T00:39:13.221Z,88.76
2023-12-09T00:40:13.260Z,88.81
2023-12-09T00:41:13.352Z,88.84
2023-12-09T00:42:13.507Z,88.78
2023-12-09T00:43:13.533Z,88.70
2023-12-09T00:44:15.149Z,88.62
2023-12-09T00:45:13.669Z,88.55
2023-12-09T00:46:13.722Z,88.55
2023-12-09T00:47:13.828Z,88.57
2023-12-09T00:48:14.050Z,88.57
2023-12-09T00:49:14.032Z,88.64
2023-12-09T00:50:14.057Z,88.71
